Time;durP1;ratioP1;P1;durP2;ratioP2;P2;SDS_P1;SDS_P2;PMS_P1;PMS_P2;Temp;Humidity;BMP_temperature;BMP_pressure;BME280_temperature;BME280_humidity;BME280_pressure;Samples;Min_cycle;Max_cycle;Signal;HPM_P1;HPM_P2
2021/10/18 00:01:01;;;;;;;;;22.00;22.00;;;;;;;;5094455;28;8809;-76
2021/10/18 00:03:27;;;;;;;;;24.67;24.33;;;;;;;;5095873;28;8797;-77
2021/10/18 00:05:52;;;;;;;;;23.33;23.33;;;;;;;;5095792;28;8864;-76
2021/10/18 00:08:17;;;;;;;;;25.67;23.00;;;;;;;;5095612;28;8806;-78
2021/10/18 00:10:42;;;;;;;;;22.33;22.00;;;;;;;;5095701;28;8782;-78
2021/10/18 00:13:08;;;;;;;;;23.33;21.33;;;;;;;;5095447;28;8878;-79
2021/10/18 00:15:33;;;;;;;;;32.67;29.33;;;;;;;;5095344;28;8834;-79
2021/10/18 00:17:59;;;;;;;;;25.00;23.33;;;;;;;;5094266;28;8834;-78
2021/10/18 00:20:25;;;;;;;;;23.33;22.67;;;;;;;;5095407;28;8770;-78
2021/10/18 00:22:50;;;;;;;;;30.33;25.33;;;;;;;;5095878;28;9012;-76
2021/10/18 00:25:17;;;;;;;;;29.67;27.33;;;;;;;;5097494;28;8817;-76
2021/10/18 00:27:42;;;;;;;;;24.67;23.67;;;;;;;;5099029;28;8900;-76
2021/10/18 00:30:08;;;;;;;;;22.33;22.33;;;;;;;;5105786;28;9219;-77
2021/10/18 00:32:33;;;;;;;;;23.67;23.33;;;;;;;;5117722;28;8815;-76
2021/10/18 00:34:59;;;;;;;;;29.00;25.33;;;;;;;;5117827;28;8795;-76
2021/10/18 00:37:24;;;;;;;;;26.67;24.00;;;;;;;;5117798;28;9656;-76
2021/10/18 00:39:49;;;;;;;;;25.33;25.33;;;;;;;;5119357;27;8775;-76
2021/10/18 00:42:14;;;;;;;;;27.00;25.67;;;;;;;;5117935;28;8839;-79
2021/10/18 00:44:40;;;;;;;;;29.33;26.00;;;;;;;;5117457;28;8811;-78
2021/10/18 00:47:10;;;;;;;;;30.33;26.33;;;;;;;;5119063;27;8779;-78
2021/10/18 00:49:36;;;;;;;;;27.33;23.33;;;;;;;;5117570;28;8775;-79
2021/10/18 00:52:04;;;;;;;;;27.67;26.67;;;;;;;;5118541;27;9085;-78
2021/10/18 00:54:29;;;;;;;;;23.33;23.00;;;;;;;;5118899;27;8860;-78
2021/10/18 00:56:54;;;;;;;;;27.00;25.33;;;;;;;;5118955;27;9199;-76
2021/10/18 00:59:20;;;;;;;;;26.33;26.00;;;;;;;;5118800;27;8844;-76
2021/10/18 01:01:45;;;;;;;;;23.33;22.33;;;;;;;;5119072;27;8904;-76
2021/10/18 01:04:11;;;;;;;;;24.33;24.33;;;;;;;;5118939;27;8791;-77
2021/10/18 01:06:37;;;;;;;;;32.00;27.67;;;;;;;;5118805;27;8767;-76
2021/10/18 01:09:02;;;;;;;;;29.67;27.67;;;;;;;;5118752;27;8767;-77
2021/10/18 01:11:27;;;;;;;;;6.67;6.33;;;;;;;;5117374;28;8814;-76
2021/10/18 01:13:52;;;;;;;;;29.33;27.33;;;;;;;;5118523;27;8803;-76
2021/10/18 01:16:18;;;;;;;;;26.00;26.00;;;;;;;;5118545;27;8817;-76
2021/10/18 01:18:43;;;;;;;;;29.00;28.33;;;;;;;;5118522;27;8811;-79
2021/10/18 01:21:12;;;;;;;;;26.67;25.33;;;;;;;;5116974;28;8799;-77
2021/10/18 01:23:37;;;;;;;;;28.33;27.00;;;;;;;;5117063;28;8814;-79
2021/10/18 01:26:03;;;;;;;;;30.33;28.00;;;;;;;;5116964;28;9330;-78
2021/10/18 01:28:28;;;;;;;;;29.67;27.33;;;;;;;;5117030;28;8909;-79
2021/10/18 01:30:53;;;;;;;;;27.33;24.67;;;;;;;;5103212;28;8837;-76
2021/10/18 01:33:18;;;;;;;;;29.67;27.33;;;;;;;;5097107;28;8802;-76
2021/10/18 01:35:44;;;;;;;;;25.33;24.67;;;;;;;;5097507;28;8782;-76
2021/10/18 01:38:09;;;;;;;;;31.00;28.67;;;;;;;;5096216;28;8786;-77
2021/10/18 01:40:35;;;;;;;;;28.00;26.33;;;;;;;;5097935;28;8806;-76
2021/10/18 01:43:00;;;;;;;;;33.67;28.33;;;;;;;;5097697;28;9619;-78
2021/10/18 01:45:26;;;;;;;;;27.67;25.33;;;;;;;;5096147;28;8822;-78
2021/10/18 01:47:51;;;;;;;;;29.33;25.00;;;;;;;;5096366;28;8805;-79
2021/10/18 01:50:18;;;;;;;;;31.67;28.67;;;;;;;;5097608;28;8896;-79
2021/10/18 01:52:44;;;;;;;;;30.67;29.00;;;;;;;;5097345;28;8808;-78
2021/10/18 01:55:09;;;;;;;;;31.67;29.67;;;;;;;;5097304;28;9339;-78
2021/10/18 01:57:35;;;;;;;;;25.33;25.33;;;;;;;;5097603;28;8786;-75
2021/10/18 02:00:00;;;;;;;;;28.33;26.67;;;;;;;;5097437;28;8974;-76
2021/10/18 02:02:25;;;;;;;;;28.33;24.67;;;;;;;;5097484;28;8849;-76
2021/10/18 02:04:51;;;;;;;;;27.33;24.33;;;;;;;;5096035;28;8813;-77
2021/10/18 02:07:16;;;;;;;;;31.00;26.33;;;;;;;;5097389;28;8871;-76
2021/10/18 02:09:41;;;;;;;;;29.67;25.33;;;;;;;;5096111;28;8817;-76
2021/10/18 02:12:06;;;;;;;;;28.67;27.33;;;;;;;;5097334;28;8801;-76
2021/10/18 02:14:32;;;;;;;;;27.33;26.33;;;;;;;;5096923;28;8790;-76
2021/10/18 02:16:57;;;;;;;;;30.67;28.00;;;;;;;;5097354;28;9659;-76
2021/10/18 02:19:22;;;;;;;;;30.67;25.00;;;;;;;;5097237;28;8838;-76
2021/10/18 02:21:47;;;;;;;;;20.67;20.67;;;;;;;;5097121;28;8789;-76
2021/10/18 02:24:12;;;;;;;;;26.00;24.67;;;;;;;;5095778;28;8810;-77
2021/10/18 02:26:38;;;;;;;;;31.67;29.33;;;;;;;;5095757;28;8805;-76
2021/10/18 02:29:03;;;;;;;;;28.67;28.00;;;;;;;;5096923;28;8782;-76
2021/10/18 02:31:28;;;;;;;;;31.00;28.33;;;;;;;;5113925;28;8854;-76
2021/10/18 02:33:53;;;;;;;;;25.33;24.67;;;;;;;;5117348;27;8853;-76
2021/10/18 02:36:19;;;;;;;;;24.33;22.33;;;;;;;;5117328;27;8818;-76
2021/10/18 02:38:44;;;;;;;;;25.67;22.67;;;;;;;;5117517;27;8841;-77
2021/10/18 02:41:09;;;;;;;;;25.33;25.33;;;;;;;;5117368;27;8787;-76
2021/10/18 02:43:34;;;;;;;;;24.00;21.33;;;;;;;;5117402;27;8807;-78
2021/10/18 02:46:00;;;;;;;;;28.33;25.33;;;;;;;;5116528;27;8783;-79
2021/10/18 02:48:25;;;;;;;;;26.67;25.67;;;;;;;;5115851;28;8842;-78
2021/10/18 02:50:53;;;;;;;;;26.33;21.67;;;;;;;;5115796;28;8868;-79
2021/10/18 02:53:19;;;;;;;;;24.67;23.67;;;;;;;;5116949;27;8792;-78
2021/10/18 02:55:45;;;;;;;;;21.33;20.67;;;;;;;;5117197;27;9184;-78
2021/10/18 02:58:10;;;;;;;;;28.67;28.33;;;;;;;;5115588;28;10190;-77
2021/10/18 03:00:36;;;;;;;;;25.67;25.00;;;;;;;;5116922;27;9708;-77
2021/10/18 03:03:04;;;;;;;;;24.67;23.00;;;;;;;;5115794;28;8790;-76
2021/10/18 03:05:29;;;;;;;;;23.67;22.67;;;;;;;;5115581;28;8787;-76
2021/10/18 03:07:55;;;;;;;;;25.33;25.33;;;;;;;;5116945;27;9318;-76
2021/10/18 03:10:20;;;;;;;;;24.50;23.50;;;;;;;;5115580;28;8806;-76
2021/10/18 03:12:46;;;;;;;;;24.67;22.67;;;;;;;;5115535;28;8827;-76
2021/10/18 03:15:11;;;;;;;;;20.33;19.33;;;;;;;;5116491;27;8891;-79
2021/10/18 03:17:37;;;;;;;;;27.00;21.33;;;;;;;;5115517;28;9630;-76
2021/10/18 03:20:03;;;;;;;;;24.67;24.67;;;;;;;;5116631;27;8802;-78
2021/10/18 03:22:30;;;;;;;;;23.00;21.33;;;;;;;;5115231;28;8816;-76
2021/10/18 03:24:58;;;;;;;;;24.67;24.00;;;;;;;;5115152;28;9250;-79
2021/10/18 03:27:25;;;;;;;;;26.00;20.67;;;;;;;;5115286;28;9130;-79
2021/10/18 03:29:51;;;;;;;;;23.67;23.33;;;;;;;;5111889;27;9187;-75
2021/10/18 03:32:16;;;;;;;;;26.00;25.00;;;;;;;;5094763;28;8849;-76
2021/10/18 03:34:42;;;;;;;;;27.00;25.00;;;;;;;;5096208;28;8801;-76
2021/10/18 03:37:07;;;;;;;;;22.33;22.00;;;;;;;;5096138;28;8868;-76
2021/10/18 03:39:32;;;;;;;;;26.00;22.33;;;;;;;;5096151;28;8809;-76
2021/10/18 03:41:58;;;;;;;;;19.67;19.67;;;;;;;;5096176;28;8840;-76
2021/10/18 03:44:23;;;;;;;;;23.00;23.00;;;;;;;;5094424;28;8805;-76
2021/10/18 03:46:48;;;;;;;;;22.00;20.67;;;;;;;;5096014;28;8802;-76
2021/10/18 03:49:14;;;;;;;;;26.67;25.33;;;;;;;;5096102;28;8863;-76
2021/10/18 03:51:39;;;;;;;;;26.00;26.00;;;;;;;;5094299;28;9010;-76
2021/10/18 03:54:04;;;;;;;;;28.67;24.33;;;;;;;;5096154;28;8900;-76
2021/10/18 03:56:30;;;;;;;;;28.33;26.33;;;;;;;;5096003;28;8794;-75
2021/10/18 03:58:55;;;;;;;;;31.67;29.33;;;;;;;;5097681;28;8838;-76
2021/10/18 04:01:20;;;;;;;;;26.00;24.67;;;;;;;;5099536;28;8866;-76
2021/10/18 04:03:45;;;;;;;;;26.67;24.67;;;;;;;;5099359;28;8872;-76
2021/10/18 04:06:11;;;;;;;;;28.33;27.67;;;;;;;;5099292;28;8811;-75
2021/10/18 04:08:36;;;;;;;;;25.33;25.33;;;;;;;;5097898;28;8812;-75
2021/10/18 04:11:02;;;;;;;;;25.33;24.67;;;;;;;;5097894;28;8813;-78
2021/10/18 04:13:27;;;;;;;;;34.00;29.33;;;;;;;;5099131;28;9525;-79
2021/10/18 04:15:52;;;;;;;;;27.33;27.33;;;;;;;;5098577;28;9720;-76
2021/10/18 04:18:18;;;;;;;;;26.33;25.33;;;;;;;;5099234;28;8806;-79
2021/10/18 04:20:44;;;;;;;;;24.67;23.33;;;;;;;;5099006;28;8797;-78
2021/10/18 04:23:09;;;;;;;;;27.33;27.00;;;;;;;;5098846;28;8856;-78
2021/10/18 04:25:34;;;;;;;;;29.33;26.67;;;;;;;;5099056;28;8778;-76
2021/10/18 04:27:59;;;;;;;;;29.67;29.67;;;;;;;;5099044;28;9536;-78
2021/10/18 04:30:25;;;;;;;;;32.67;31.33;;;;;;;;5108300;28;8857;-76
2021/10/18 04:32:50;;;;;;;;;32.33;30.00;;;;;;;;5119221;27;8933;-76
2021/10/18 04:35:15;;;;;;;;;33.00;26.00;;;;;;;;5119484;27;8806;-76
2021/10/18 04:37:40;;;;;;;;;32.33;28.00;;;;;;;;5119254;27;8791;-76
2021/10/18 04:40:06;;;;;;;;;35.67;31.00;;;;;;;;5119355;27;8783;-76
2021/10/18 04:42:31;;;;;;;;;26.67;24.00;;;;;;;;5119155;27;9633;-76
2021/10/18 04:44:56;;;;;;;;;30.33;25.33;;;;;;;;5118950;27;8791;-76
2021/10/18 04:47:22;;;;;;;;;30.00;26.33;;;;;;;;5119178;27;8795;-78
2021/10/18 04:49:50;;;;;;;;;31.25;30.50;;;;;;;;5117871;28;8831;-79
2021/10/18 04:52:16;;;;;;;;;30.00;25.33;;;;;;;;5117199;28;8814;-78
2021/10/18 04:54:41;;;;;;;;;22.67;20.00;;;;;;;;5117548;28;9364;-78
2021/10/18 04:57:06;;;;;;;;;22.67;22.67;;;;;;;;5117456;28;8810;-78
2021/10/18 04:59:32;;;;;;;;;27.33;25.33;;;;;;;;5118768;27;8775;-76
2021/10/18 05:01:58;;;;;;;;;33.33;29.00;;;;;;;;5117536;28;8803;-76
2021/10/18 05:04:23;;;;;;;;;29.33;27.00;;;;;;;;5117427;28;8875;-76
2021/10/18 05:06:49;;;;;;;;;29.00;28.00;;;;;;;;5117489;28;8807;-76
2021/10/18 05:09:17;;;;;;;;;29.00;26.33;;;;;;;;5117095;28;8807;-77
2021/10/18 05:11:42;;;;;;;;;34.33;32.00;;;;;;;;5117217;28;8834;-76
2021/10/18 05:14:08;;;;;;;;;25.00;24.67;;;;;;;;5117032;27;9469;-77
2021/10/18 05:16:34;;;;;;;;;33.33;29.00;;;;;;;;5117301;28;8811;-76
2021/10/18 05:18:59;;;;;;;;;29.00;27.00;;;;;;;;5118840;27;8764;-76
2021/10/18 05:21:24;;;;;;;;;29.00;24.00;;;;;;;;5118512;27;9283;-77
2021/10/18 05:23:50;;;;;;;;;27.00;23.67;;;;;;;;5118564;27;8817;-76
2021/10/18 05:26:15;;;;;;;;;25.33;22.67;;;;;;;;5118560;27;8783;-76
2021/10/18 05:28:40;;;;;;;;;27.00;23.67;;;;;;;;5118580;27;8783;-76
2021/10/18 05:31:06;;;;;;;;;22.67;21.67;;;;;;;;5102840;27;8833;-79
2021/10/18 05:33:32;;;;;;;;;30.67;26.00;;;;;;;;5096315;28;8812;-79
2021/10/18 05:35:57;;;;;;;;;29.67;25.00;;;;;;;;5097753;28;9245;-78
2021/10/18 05:38:25;;;;;;;;;25.00;22.33;;;;;;;;5096358;28;8825;-78
2021/10/18 05:40:51;;;;;;;;;24.33;24.00;;;;;;;;5096460;28;8809;-78
2021/10/18 05:43:17;;;;;;;;;29.00;26.67;;;;;;;;5096183;28;9194;-78
2021/10/18 05:45:42;;;;;;;;;26.67;25.33;;;;;;;;5096215;28;10150;-76
2021/10/18 05:48:10;;;;;;;;;27.33;25.33;;;;;;;;5096325;28;8847;-76
2021/10/18 05:50:39;;;;;;;;;26.00;23.00;;;;;;;;5096170;28;8786;-76
2021/10/18 05:53:05;;;;;;;;;27.00;25.33;;;;;;;;5095955;28;9276;-76
2021/10/18 05:55:35;;;;;;;;;27.67;27.67;;;;;;;;5096278;28;9198;-75
2021/10/18 05:58:05;;;;;;;;;27.00;27.00;;;;;;;;5096164;28;8879;-75
2021/10/18 06:00:48;;;;;;;;;27.00;26.00;;;;;;;;5097357;28;9192;-75
2021/10/18 06:03:14;;;;;;;;;25.67;24.33;;;;;;;;5097536;28;9421;-75
2021/10/18 06:05:46;;;;;;;;;30.50;27.50;;;;;;;;5096095;28;9578;-76
2021/10/18 06:08:13;;;;;;;;;31.33;27.33;;;;;;;;5095855;28;9561;-76
2021/10/18 06:10:39;;;;;;;;;28.33;28.33;;;;;;;;5096102;28;9429;-75
2021/10/18 06:13:05;;;;;;;;;31.33;29.33;;;;;;;;5095854;28;9428;-75
2021/10/18 06:15:36;;;;;;;;;29.50;28.50;;;;;;;;5095322;28;8817;-77
2021/10/18 06:18:09;;;;;;;;;29.00;26.33;;;;;;;;5095796;28;9590;-76
2021/10/18 06:20:35;;;;;;;;;28.33;26.67;;;;;;;;5094994;28;10301;-77
2021/10/18 06:23:00;;;;;;;;;32.67;30.33;;;;;;;;5095621;28;9411;-78
2021/10/18 06:25:25;;;;;;;;;28.00;27.33;;;;;;;;5095691;28;9530;-78
2021/10/18 06:27:51;;;;;;;;;30.67;29.33;;;;;;;;5095625;28;8801;-76
2021/10/18 06:30:16;;;;;;;;;32.00;26.67;;;;;;;;5103655;28;8841;-76
2021/10/18 06:32:42;;;;;;;;;32.33;26.67;;;;;;;;5117320;27;8823;-75
2021/10/18 06:35:10;;;;;;;;;29.00;26.00;;;;;;;;5117348;27;8830;-78
2021/10/18 06:37:36;;;;;;;;;34.00;31.67;;;;;;;;5115843;28;9668;-78
2021/10/18 06:40:01;;;;;;;;;27.33;27.33;;;;;;;;5115926;28;9366;-78
2021/10/18 06:42:27;;;;;;;;;32.67;30.67;;;;;;;;5115760;28;8821;-78
2021/10/18 06:44:52;;;;;;;;;37.33;30.00;;;;;;;;5115702;28;8823;-78
2021/10/18 06:47:18;;;;;;;;;36.00;32.00;;;;;;;;5115747;28;9618;-79
2021/10/18 06:49:43;;;;;;;;;29.50;27.25;;;;;;;;5115701;28;8876;-75
2021/10/18 06:52:09;;;;;;;;;34.25;31.75;;;;;;;;5116860;27;9658;-75
2021/10/18 06:54:40;;;;;;;;;33.75;32.50;;;;;;;;5117242;27;8822;-76
2021/10/18 06:57:05;;;;;;;;;40.00;35.00;;;;;;;;5117192;27;8775;-75
2021/10/18 06:59:31;;;;;;;;;33.00;30.33;;;;;;;;5117116;27;9891;-76
2021/10/18 07:01:57;;;;;;;;;41.25;35.25;;;;;;;;5116985;27;8787;-77
2021/10/18 07:04:23;;;;;;;;;40.25;34.50;;;;;;;;5117067;27;9736;-78
2021/10/18 07:06:48;;;;;;;;;38.25;32.75;;;;;;;;5116854;27;8774;-80
2021/10/18 07:09:16;;;;;;;;;35.25;32.50;;;;;;;;5115348;28;8795;-76
2021/10/18 07:11:41;;;;;;;;;38.25;35.00;;;;;;;;5115244;28;8740;-79
2021/10/18 07:14:06;;;;;;;;;45.25;38.75;;;;;;;;5116237;27;9995;-79
2021/10/18 07:16:32;;;;;;;;;39.75;35.25;;;;;;;;5116749;27;8779;-78
2021/10/18 07:18:57;;;;;;;;;43.75;38.25;;;;;;;;5115276;28;8798;-76
2021/10/18 07:21:23;;;;;;;;;44.25;35.75;;;;;;;;5116725;27;8868;-76
2021/10/18 07:23:51;;;;;;;;;40.75;36.00;;;;;;;;5116832;27;8787;-75
2021/10/18 07:26:18;;;;;;;;;43.00;35.75;;;;;;;;5116813;27;8708;-77
2021/10/18 07:28:43;;;;;;;;;47.25;38.00;;;;;;;;5114971;28;9970;-75
2021/10/18 07:31:08;;;;;;;;;43.25;38.00;;;;;;;;5101436;27;10073;-79
2021/10/18 07:33:34;;;;;;;;;48.00;40.00;;;;;;;;5098148;28;8810;-79
2021/10/18 07:36:07;;;;;;;;;41.25;37.00;;;;;;;;5098453;28;8809;-79
2021/10/18 07:38:33;;;;;;;;;44.00;36.25;;;;;;;;5099970;28;8842;-79
2021/10/18 07:40:58;;;;;;;;;42.75;37.50;;;;;;;;5099767;28;9757;-79
2021/10/18 07:43:23;;;;;;;;;46.25;38.25;;;;;;;;5099805;28;8808;-79
2021/10/18 07:45:48;;;;;;;;;46.25;38.25;;;;;;;;5097775;28;8814;-79
2021/10/18 07:48:14;;;;;;;;;41.50;35.75;;;;;;;;5099690;28;8786;-79
2021/10/18 07:50:39;;;;;;;;;40.75;35.00;;;;;;;;5098291;28;8801;-79
2021/10/18 07:53:04;;;;;;;;;41.75;37.25;;;;;;;;5099490;28;9595;-79
2021/10/18 07:55:33;;;;;;;;;47.50;38.25;;;;;;;;5098199;28;8801;-79
2021/10/18 07:57:59;;;;;;;;;40.75;35.75;;;;;;;;5099724;28;8773;-79
2021/10/18 08:00:24;;;;;;;;;42.50;35.75;;;;;;;;5099207;28;9686;-79
2021/10/18 08:02:49;;;;;;;;;33.33;31.67;;;;;;;;5099533;28;8818;-79
2021/10/18 08:05:18;;;;;;;;;36.33;33.33;;;;;;;;5099432;28;8782;-78
2021/10/18 08:07:46;;;;;;;;;30.00;30.00;;;;;;;;5099131;28;8781;-78
2021/10/18 08:10:13;;;;;;;;;32.00;30.00;;;;;;;;5099327;28;9324;-78
2021/10/18 08:12:38;;;;;;;;;32.00;31.00;;;;;;;;5097703;28;9269;-78
2021/10/18 08:15:04;;;;;;;;;32.00;31.00;;;;;;;;5097191;28;9043;-79
2021/10/18 08:17:29;;;;;;;;;28.33;27.00;;;;;;;;5098903;28;8817;-78
2021/10/18 08:19:54;;;;;;;;;31.33;29.33;;;;;;;;5099288;28;8790;-79
2021/10/18 08:22:20;;;;;;;;;28.67;27.33;;;;;;;;5095080;28;9251;-78
2021/10/18 08:24:45;;;;;;;;;30.00;29.33;;;;;;;;5099075;28;8806;-78
2021/10/18 08:27:10;;;;;;;;;24.67;24.67;;;;;;;;5098821;28;8852;-79
2021/10/18 08:29:35;;;;;;;;;26.67;26.67;;;;;;;;5098705;28;8809;-78
2021/10/18 08:32:00;;;;;;;;;28.67;28.00;;;;;;;;5098958;28;8818;-78
2021/10/18 08:34:26;;;;;;;;;30.33;29.33;;;;;;;;5096409;28;8817;-78
2021/10/18 08:36:51;;;;;;;;;29.00;26.33;;;;;;;;5097109;28;8801;-78
2021/10/18 08:41:46;;;;;;;;;29.67;27.67;;;;;;;;5097927;28;8818;-79
2021/10/18 08:44:15;;;;;;;;;34.00;31.00;;;;;;;;5092822;28;8726;-78
2021/10/18 08:46:40;;;;;;;;;32.67;30.33;;;;;;;;5096411;28;9030;-79
2021/10/18 08:49:05;;;;;;;;;29.00;26.00;;;;;;;;5098590;28;9905;-79
2021/10/18 08:51:31;;;;;;;;;24.00;23.33;;;;;;;;5098202;28;8845;-78
2021/10/18 08:53:56;;;;;;;;;31.67;30.00;;;;;;;;5097683;28;8805;-78
2021/10/18 08:56:22;;;;;;;;;32.67;30.67;;;;;;;;5097649;28;8797;-79
2021/10/18 08:58:47;;;;;;;;;28.00;26.00;;;;;;;;5104644;28;8838;-79
2021/10/18 09:01:13;;;;;;;;;31.67;30.00;;;;;;;;5098498;28;8782;-79
2021/10/18 09:03:38;;;;;;;;;30.00;28.67;;;;;;;;5095540;28;8809;-79
2021/10/18 09:06:23;;;;;;;;;28.33;27.33;;;;;;;;5095023;28;8813;-79
2021/10/18 09:08:49;;;;;;;;;28.00;25.67;;;;;;;;5097631;28;8829;-79
2021/10/18 09:11:28;;;;;;;;;27.50;25.25;;;;;;;;5095947;28;9807;-79
2021/10/18 09:13:53;;;;;;;;;26.67;25.67;;;;;;;;5096209;28;8806;-79
2021/10/18 09:16:27;;;;;;;;;29.00;26.00;;;;;;;;5098284;28;8930;-78
2021/10/18 09:19:03;;;;;;;;;26.50;26.50;;;;;;;;5098235;28;8766;-79
2021/10/18 09:21:30;;;;;;;;;27.00;26.67;;;;;;;;5095667;28;8907;-79
2021/10/18 09:23:55;;;;;;;;;25.50;25.00;;;;;;;;5096600;28;8918;-78
2021/10/18 09:26:22;;;;;;;;;24.33;21.67;;;;;;;;5098260;28;8769;-80
2021/10/18 09:28:51;;;;;;;;;25.00;24.25;;;;;;;;5098557;28;8770;-79
2021/10/18 09:31:17;;;;;;;;;30.50;28.00;;;;;;;;5097561;28;8746;-79
2021/10/18 09:33:47;;;;;;;;;22.25;21.25;;;;;;;;5096407;28;8781;-79
2021/10/18 09:36:17;;;;;;;;;23.75;22.00;;;;;;;;5096457;28;8790;-79
2021/10/18 09:38:42;;;;;;;;;24.75;24.50;;;;;;;;5097650;28;8874;-79
2021/10/18 09:41:08;;;;;;;;;26.67;24.67;;;;;;;;5097730;28;8948;-79
2021/10/18 09:43:38;;;;;;;;;20.33;19.33;;;;;;;;5096329;28;8967;-78
2021/10/18 09:46:10;;;;;;;;;22.00;19.75;;;;;;;;5097834;28;8793;-79
2021/10/18 10:53:17;;;;;;;;;16.00;16.00;;;;;;;;5098841;28;8837;-79
2021/10/18 10:55:43;;;;;;;;;18.75;18.75;;;;;;;;5101454;28;9691;-78
2021/10/18 10:58:32;;;;;;;;;17.00;17.00;;;;;;;;5101969;28;8866;-79
2021/10/18 11:00:57;;;;;;;;;22.00;22.00;;;;;;;;5093259;28;8786;-80
2021/10/18 11:03:41;;;;;;;;;20.33;18.33;;;;;;;;5097734;28;8800;-81
2021/10/18 11:06:11;;;;;;;;;20.25;20.25;;;;;;;;5098493;28;8824;-82
2021/10/18 11:08:44;;;;;;;;;21.25;19.75;;;;;;;;5098032;28;8802;-80
2021/10/18 11:11:12;;;;;;;;;20.50;20.25;;;;;;;;5100125;28;8765;-81
2021/10/18 11:13:49;;;;;;;;;25.25;23.00;;;;;;;;5099390;28;9712;-80
2021/10/18 11:16:15;;;;;;;;;21.75;21.25;;;;;;;;5097280;28;8778;-77
2021/10/18 11:18:40;;;;;;;;;21.00;20.00;;;;;;;;5096804;28;8778;-78
2021/10/18 11:21:15;;;;;;;;;20.33;19.67;;;;;;;;5107608;28;8811;-78
2021/10/18 11:24:00;;;;;;;;;20.75;20.50;;;;;;;;5116096;28;8751;-79
2021/10/18 11:26:26;;;;;;;;;20.00;18.25;;;;;;;;5120295;28;8895;-78
2021/10/18 11:28:55;;;;;;;;;15.25;14.75;;;;;;;;5117262;28;8772;-79
2021/10/18 11:31:24;;;;;;;;;18.33;17.33;;;;;;;;5118734;28;8771;-78
2021/10/18 11:33:59;;;;;;;;;19.75;18.00;;;;;;;;5122162;28;8736;-80
2021/10/18 11:36:25;;;;;;;;;18.75;18.75;;;;;;;;5121896;28;9696;-77
2021/10/18 11:39:04;;;;;;;;;19.33;17.00;;;;;;;;5121297;27;8775;-80
2021/10/18 11:41:29;;;;;;;;;17.00;16.75;;;;;;;;5116671;27;8763;-79
2021/10/18 11:43:55;;;;;;;;;19.67;18.67;;;;;;;;5116807;27;8861;-80
2021/10/18 11:46:20;;;;;;;;;21.00;21.00;;;;;;;;5117239;28;8883;-79
2021/10/18 11:48:46;;;;;;;;;16.67;16.67;;;;;;;;5122692;28;9362;-80
2021/10/18 11:51:11;;;;;;;;;18.33;18.33;;;;;;;;5119273;27;8798;-80
2021/10/18 11:53:40;;;;;;;;;18.00;16.00;;;;;;;;5120399;27;12388;-80
2021/10/18 11:56:06;;;;;;;;;20.50;20.25;;;;;;;;5118616;27;8751;-79
2021/10/18 11:58:32;;;;;;;;;24.00;22.33;;;;;;;;5117907;27;8812;-79
2021/10/18 12:00:58;;;;;;;;;24.50;23.50;;;;;;;;5116494;27;8814;-81
2021/10/18 12:03:24;;;;;;;;;21.75;20.25;;;;;;;;5116437;27;8859;-80
2021/10/18 12:05:51;;;;;;;;;23.00;20.00;;;;;;;;5116357;27;8958;-80
2021/10/18 12:08:17;;;;;;;;;24.00;22.25;;;;;;;;5116185;27;8763;-80
2021/10/18 12:10:44;;;;;;;;;20.25;19.00;;;;;;;;5114990;28;8919;-80
2021/10/18 12:13:18;;;;;;;;;20.25;20.00;;;;;;;;5116108;27;8925;-80
2021/10/18 12:15:43;;;;;;;;;21.75;21.50;;;;;;;;5117513;27;8808;-79
2021/10/18 12:18:09;;;;;;;;;17.00;16.00;;;;;;;;5125607;28;8791;-80
2021/10/18 12:20:34;;;;;;;;;20.67;18.67;;;;;;;;5134277;27;8888;-79
2021/10/18 12:23:05;;;;;;;;;19.33;18.33;;;;;;;;5129593;28;8892;-78
2021/10/18 12:25:31;;;;;;;;;21.00;18.75;;;;;;;;5131205;28;8789;-79
2021/10/18 12:27:57;;;;;;;;;22.67;22.67;;;;;;;;5130606;28;8902;-78
2021/10/18 12:30:40;;;;;;;;;21.25;21.25;;;;;;;;5120400;27;9726;-82
2021/10/18 12:33:12;;;;;;;;;18.25;18.25;;;;;;;;5097543;28;8802;-80
2021/10/18 12:35:38;;;;;;;;;19.75;18.75;;;;;;;;5097303;28;8782;-80
2021/10/18 12:38:10;;;;;;;;;19.00;19.00;;;;;;;;5098826;28;8879;-80
2021/10/18 12:40:36;;;;;;;;;20.25;19.00;;;;;;;;5100319;28;8770;-79
2021/10/18 12:43:02;;;;;;;;;19.67;17.67;;;;;;;;5098784;28;8926;-79
2021/10/18 12:45:31;;;;;;;;;21.25;20.25;;;;;;;;5106454;28;8801;-79
2021/10/18 12:47:59;;;;;;;;;22.50;21.75;;;;;;;;5105469;28;8777;-78
2021/10/18 12:50:25;;;;;;;;;16.75;16.75;;;;;;;;5103867;28;8786;-79
2021/10/18 12:52:52;;;;;;;;;20.25;20.25;;;;;;;;5097465;28;9799;-83
2021/10/18 12:55:18;;;;;;;;;19.25;18.50;;;;;;;;5097819;28;8777;-83
2021/10/18 12:57:50;;;;;;;;;18.00;17.00;;;;;;;;5097176;28;8797;-82
2021/10/18 13:00:17;;;;;;;;;20.00;19.00;;;;;;;;5096950;28;8806;-82
2021/10/18 13:02:46;;;;;;;;;22.50;21.75;;;;;;;;5098683;28;8796;-81
2021/10/18 13:05:14;;;;;;;;;20.25;20.00;;;;;;;;5097077;28;8794;-82
2021/10/18 13:07:44;;;;;;;;;22.25;22.25;;;;;;;;5097144;28;8804;-83
2021/10/18 13:10:10;;;;;;;;;20.00;20.00;;;;;;;;5103204;28;8762;-81
2021/10/18 13:12:36;;;;;;;;;19.50;19.50;;;;;;;;5100310;28;9735;-80
2021/10/18 13:15:02;;;;;;;;;22.33;22.00;;;;;;;;5100827;28;8797;-83
2021/10/18 13:17:28;;;;;;;;;19.00;19.00;;;;;;;;5101917;28;8855;-82
2021/10/18 13:19:54;;;;;;;;;20.00;20.00;;;;;;;;5099521;28;8790;-81
2021/10/18 13:22:20;;;;;;;;;22.33;22.33;;;;;;;;5097121;28;9597;-80
2021/10/18 13:24:45;;;;;;;;;18.67;17.67;;;;;;;;5096800;28;10084;-81
2021/10/18 13:27:10;;;;;;;;;20.00;19.00;;;;;;;;5098078;28;8938;-82
2021/10/18 13:29:36;;;;;;;;;21.00;21.00;;;;;;;;5100420;28;8841;-85
2021/10/18 13:32:04;;;;;;;;;19.33;19.33;;;;;;;;5118728;27;8870;-83
2021/10/18 13:34:30;;;;;;;;;17.75;17.00;;;;;;;;5120295;27;8727;-83
2021/10/18 13:36:55;;;;;;;;;23.50;22.00;;;;;;;;5121814;27;8857;-84
2021/10/18 13:39:20;;;;;;;;;21.00;17.67;;;;;;;;5123030;28;8802;-83
2021/10/18 13:41:45;;;;;;;;;19.67;19.67;;;;;;;;5121427;27;8892;-84
2021/10/18 13:44:11;;;;;;;;;20.33;18.00;;;;;;;;5116832;28;9607;-84
2021/10/18 13:46:36;;;;;;;;;21.33;20.00;;;;;;;;5097438;28;8805;-83
2021/10/18 13:49:03;;;;;;;;;22.33;22.00;;;;;;;;5096070;28;8840;-83
2021/10/18 13:51:29;;;;;;;;;19.25;19.25;;;;;;;;5097539;28;8777;-83
2021/10/18 13:53:54;;;;;;;;;19.67;18.67;;;;;;;;5098051;28;8793;-83
2021/10/18 13:56:21;;;;;;;;;19.00;19.00;;;;;;;;5095890;28;11606;-80
2021/10/18 13:58:46;;;;;;;;;20.75;19.75;;;;;;;;5096056;28;8912;-80
2021/10/18 14:01:12;;;;;;;;;21.67;21.67;;;;;;;;5097662;28;8974;-80
2021/10/18 14:03:37;;;;;;;;;21.75;21.75;;;;;;;;5097420;28;9814;-80
2021/10/18 14:06:03;;;;;;;;;20.67;20.67;;;;;;;;5095845;28;8828;-81
2021/10/18 14:08:28;;;;;;;;;19.00;18.00;;;;;;;;5097930;28;8817;-83
2021/10/18 14:10:53;;;;;;;;;21.00;20.33;;;;;;;;5095774;28;8801;-80
2021/10/18 14:13:18;;;;;;;;;21.33;21.33;;;;;;;;5097416;28;8806;-83
2021/10/18 14:15:44;;;;;;;;;24.33;24.00;;;;;;;;5095482;28;8834;-84
2021/10/18 14:18:09;;;;;;;;;19.00;19.00;;;;;;;;5095804;28;8818;-83
2021/10/18 14:20:34;;;;;;;;;19.00;18.00;;;;;;;;5095890;28;8846;-84
2021/10/18 14:22:59;;;;;;;;;20.00;18.67;;;;;;;;5095719;28;9583;-84
2021/10/18 14:25:25;;;;;;;;;22.67;21.33;;;;;;;;5097039;28;8801;-84
2021/10/18 14:27:50;;;;;;;;;20.67;20.67;;;;;;;;5097130;28;8822;-81
2021/10/18 14:30:15;;;;;;;;;18.67;18.67;;;;;;;;5103419;28;8846;-83
2021/10/18 14:32:41;;;;;;;;;23.00;21.67;;;;;;;;5116167;28;8839;-83
2021/10/18 14:35:07;;;;;;;;;20.67;20.67;;;;;;;;5116006;28;8814;-82
2021/10/18 14:37:32;;;;;;;;;25.00;24.00;;;;;;;;5117590;27;8865;-80
2021/10/18 14:39:57;;;;;;;;;19.00;17.67;;;;;;;;5117382;27;11495;-80
2021/10/18 14:42:22;;;;;;;;;19.67;19.67;;;;;;;;5116623;27;8811;-80
2021/10/18 14:44:48;;;;;;;;;24.33;22.33;;;;;;;;5115246;28;8926;-84
2021/10/18 14:47:13;;;;;;;;;24.00;23.33;;;;;;;;5107684;27;8834;-85
2021/10/18 14:49:39;;;;;;;;;24.67;22.67;;;;;;;;5107383;28;8799;-85
2021/10/18 14:52:05;;;;;;;;;19.50;19.00;;;;;;;;5104291;28;8839;-85
2021/10/18 14:54:30;;;;;;;;;20.67;20.67;;;;;;;;5106075;28;8884;-83
2021/10/18 14:56:55;;;;;;;;;19.67;19.00;;;;;;;;5106755;28;8801;-83
2021/10/18 14:59:20;;;;;;;;;20.00;19.67;;;;;;;;5112342;28;9562;-79
2021/10/18 15:01:46;;;;;;;;;17.67;16.67;;;;;;;;5117031;28;8819;-80
2021/10/18 15:04:11;;;;;;;;;19.00;18.00;;;;;;;;5117196;28;8795;-80
2021/10/18 15:06:36;;;;;;;;;20.67;19.33;;;;;;;;5115514;28;8810;-82
2021/10/18 15:09:04;;;;;;;;;22.00;20.33;;;;;;;;5116990;28;8791;-80
2021/10/18 15:11:29;;;;;;;;;20.75;20.25;;;;;;;;5116675;28;8787;-80
2021/10/18 15:13:55;;;;;;;;;22.67;21.33;;;;;;;;5116528;28;8817;-80
2021/10/18 15:16:20;;;;;;;;;25.33;23.67;;;;;;;;5115346;28;8807;-84
2021/10/18 15:18:45;;;;;;;;;16.67;15.00;;;;;;;;5115804;28;8842;-84
2021/10/18 15:21:13;;;;;;;;;21.33;21.33;;;;;;;;5116809;28;8776;-84
2021/10/18 15:23:39;;;;;;;;;21.00;21.00;;;;;;;;5119406;28;8739;-84
2021/10/18 15:26:04;;;;;;;;;20.67;20.67;;;;;;;;5116704;28;8881;-83
2021/10/18 15:28:29;;;;;;;;;20.00;20.00;;;;;;;;5116422;28;8794;-84
2021/10/18 15:30:55;;;;;;;;;23.33;22.33;;;;;;;;5113340;28;8904;-81